sensor_id;sensor_type;location;lat;lon;timestamp;P1;durP1;ratioP1;P2;durP2;ratioP2
51566;SDS011;37657;53.182;5.638;2023-07-16T00:00:30;20.08;;;5.82;;
51566;SDS011;37657;53.182;5.638;2023-07-16T00:02:56;15.73;;;7.05;;
51566;SDS011;37657;53.182;5.638;2023-07-16T00:05:21;15.10;;;7.50;;
51566;SDS011;37657;53.182;5.638;2023-07-16T00:07:47;10.63;;;6.60;;
51566;SDS011;37657;53.182;5.638;2023-07-16T00:10:13;16.48;;;6.95;;
51566;SDS011;37657;53.182;5.638;2023-07-16T00:12:39;11.55;;;6.63;;
51566;SDS011;37657;53.182;5.638;2023-07-16T00:15:05;12.15;;;6.15;;
51566;SDS011;37657;53.182;5.638;2023-07-16T00:17:33;12.18;;;6.10;;
51566;SDS011;37657;53.182;5.638;2023-07-16T00:19:59;17.42;;;6.47;;
51566;SDS011;37657;53.182;5.638;2023-07-16T00:22:24;11.93;;;6.20;;
51566;SDS011;37657;53.182;5.638;2023-07-16T00:24:50;16.80;;;6.43;;
51566;SDS011;37657;53.182;5.638;2023-07-16T00:27:15;13.18;;;7.43;;
51566;SDS011;37657;53.182;5.638;2023-07-16T00:29:41;9.77;;;6.15;;
51566;SDS011;37657;53.182;5.638;2023-07-16T00:32:07;9.00;;;5.60;;
51566;SDS011;37657;53.182;5.638;2023-07-16T00:34:32;11.05;;;5.90;;
51566;SDS011;37657;53.182;5.638;2023-07-16T00:36:58;10.10;;;6.45;;
51566;SDS011;37657;53.182;5.638;2023-07-16T00:39:27;11.40;;;5.93;;
51566;SDS011;37657;53.182;5.638;2023-07-16T00:41:53;13.10;;;7.00;;
51566;SDS011;37657;53.182;5.638;2023-07-16T00:44:19;18.02;;;7.05;;
51566;SDS011;37657;53.182;5.638;2023-07-16T00:46:45;10.57;;;6.43;;
51566;SDS011;37657;53.182;5.638;2023-07-16T00:49:10;12.85;;;6.60;;
51566;SDS011;37657;53.182;5.638;2023-07-16T00:51:36;10.13;;;5.60;;
51566;SDS011;37657;53.182;5.638;2023-07-16T00:54:02;11.85;;;6.00;;
51566;SDS011;37657;53.182;5.638;2023-07-16T00:56:28;12.57;;;6.03;;
51566;SDS011;37657;53.182;5.638;2023-07-16T00:58:54;12.63;;;6.13;;
51566;SDS011;37657;53.182;5.638;2023-07-16T01:01:20;15.95;;;6.38;;
51566;SDS011;37657;53.182;5.638;2023-07-16T01:03:45;13.80;;;6.53;;
51566;SDS011;37657;53.182;5.638;2023-07-16T01:06:19;16.10;;;7.93;;
51566;SDS011;37657;53.182;5.638;2023-07-16T01:08:57;20.35;;;9.07;;
51566;SDS011;37657;53.182;5.638;2023-07-16T01:11:31;16.30;;;6.90;;
51566;SDS011;37657;53.182;5.638;2023-07-16T01:14:00;13.07;;;6.57;;
51566;SDS011;37657;53.182;5.638;2023-07-16T01:16:27;13.88;;;7.00;;
51566;SDS011;37657;53.182;5.638;2023-07-16T01:18:52;7.93;;;5.63;;
51566;SDS011;37657;53.182;5.638;2023-07-16T01:21:20;13.02;;;7.00;;
51566;SDS011;37657;53.182;5.638;2023-07-16T01:24:00;8.90;;;7.03;;
51566;SDS011;37657;53.182;5.638;2023-07-16T01:29:31;22.73;;;7.72;;
51566;SDS011;37657;53.182;5.638;2023-07-16T01:32:02;11.05;;;6.95;;
51566;SDS011;37657;53.182;5.638;2023-07-16T01:34:30;13.40;;;5.53;;
51566;SDS011;37657;53.182;5.638;2023-07-16T01:36:59;14.25;;;7.18;;
51566;SDS011;37657;53.182;5.638;2023-07-16T01:39:28;17.17;;;7.30;;
51566;SDS011;37657;53.182;5.638;2023-07-16T01:41:55;12.07;;;6.35;;
51566;SDS011;37657;53.182;5.638;2023-07-16T01:44:21;8.60;;;4.90;;
51566;SDS011;37657;53.182;5.638;2023-07-16T01:46:49;18.70;;;7.68;;
51566;SDS011;37657;53.182;5.638;2023-07-16T01:49:44;11.88;;;6.25;;
51566;SDS011;37657;53.182;5.638;2023-07-16T01:52:11;16.17;;;7.43;;
51566;SDS011;37657;53.182;5.638;2023-07-16T01:54:37;10.93;;;6.53;;
51566;SDS011;37657;53.182;5.638;2023-07-16T01:57:03;7.85;;;5.32;;
51566;SDS011;37657;53.182;5.638;2023-07-16T01:59:29;9.63;;;4.78;;
51566;SDS011;37657;53.182;5.638;2023-07-16T02:01:54;18.48;;;6.60;;
51566;SDS011;37657;53.182;5.638;2023-07-16T02:04:20;11.00;;;5.60;;
51566;SDS011;37657;53.182;5.638;2023-07-16T02:06:46;13.10;;;6.90;;
51566;SDS011;37657;53.182;5.638;2023-07-16T02:09:13;9.15;;;5.25;;
51566;SDS011;37657;53.182;5.638;2023-07-16T02:11:38;9.80;;;6.18;;
51566;SDS011;37657;53.182;5.638;2023-07-16T02:14:04;13.20;;;5.75;;
51566;SDS011;37657;53.182;5.638;2023-07-16T02:16:30;11.32;;;6.05;;
51566;SDS011;37657;53.182;5.638;2023-07-16T02:18:55;7.65;;;5.10;;
51566;SDS011;37657;53.182;5.638;2023-07-16T02:21:21;10.50;;;6.10;;
51566;SDS011;37657;53.182;5.638;2023-07-16T02:23:46;14.43;;;6.22;;
51566;SDS011;37657;53.182;5.638;2023-07-16T02:26:12;14.30;;;7.35;;
51566;SDS011;37657;53.182;5.638;2023-07-16T02:28:37;12.70;;;6.20;;
51566;SDS011;37657;53.182;5.638;2023-07-16T02:31:03;11.38;;;4.68;;
51566;SDS011;37657;53.182;5.638;2023-07-16T02:33:29;9.77;;;6.20;;
51566;SDS011;37657;53.182;5.638;2023-07-16T02:35:55;11.25;;;5.95;;
51566;SDS011;37657;53.182;5.638;2023-07-16T02:38:20;9.18;;;4.82;;
51566;SDS011;37657;53.182;5.638;2023-07-16T02:40:46;9.95;;;6.13;;
51566;SDS011;37657;53.182;5.638;2023-07-16T02:43:13;12.75;;;6.80;;
51566;SDS011;37657;53.182;5.638;2023-07-16T02:45:39;10.65;;;7.03;;
51566;SDS011;37657;53.182;5.638;2023-07-16T02:48:05;16.20;;;6.90;;
51566;SDS011;37657;53.182;5.638;2023-07-16T02:50:35;13.48;;;6.55;;
51566;SDS011;37657;53.182;5.638;2023-07-16T02:53:03;11.10;;;5.93;;
51566;SDS011;37657;53.182;5.638;2023-07-16T02:55:30;9.95;;;6.90;;
51566;SDS011;37657;53.182;5.638;2023-07-16T02:57:55;17.25;;;7.10;;
51566;SDS011;37657;53.182;5.638;2023-07-16T03:00:21;8.13;;;6.00;;
51566;SDS011;37657;53.182;5.638;2023-07-16T03:02:47;14.10;;;6.75;;
51566;SDS011;37657;53.182;5.638;2023-07-16T03:05:15;13.15;;;7.03;;
51566;SDS011;37657;53.182;5.638;2023-07-16T03:07:41;10.40;;;6.50;;
51566;SDS011;37657;53.182;5.638;2023-07-16T03:10:06;14.88;;;7.28;;
51566;SDS011;37657;53.182;5.638;2023-07-16T03:12:32;12.88;;;7.00;;
51566;SDS011;37657;53.182;5.638;2023-07-16T03:14:58;12.15;;;7.07;;
51566;SDS011;37657;53.182;5.638;2023-07-16T03:17:23;18.90;;;7.65;;
51566;SDS011;37657;53.182;5.638;2023-07-16T03:19:49;8.43;;;6.43;;
51566;SDS011;37657;53.182;5.638;2023-07-16T03:22:14;11.38;;;6.65;;
51566;SDS011;37657;53.182;5.638;2023-07-16T03:24:40;15.80;;;7.32;;
51566;SDS011;37657;53.182;5.638;2023-07-16T03:27:06;13.88;;;7.15;;
51566;SDS011;37657;53.182;5.638;2023-07-16T03:29:35;13.13;;;6.88;;
51566;SDS011;37657;53.182;5.638;2023-07-16T03:32:00;13.40;;;7.20;;
51566;SDS011;37657;53.182;5.638;2023-07-16T03:34:26;10.88;;;6.72;;
51566;SDS011;37657;53.182;5.638;2023-07-16T03:36:52;14.23;;;8.18;;
51566;SDS011;37657;53.182;5.638;2023-07-16T03:39:18;10.70;;;7.43;;
51566;SDS011;37657;53.182;5.638;2023-07-16T03:41:43;16.98;;;7.78;;
51566;SDS011;37657;53.182;5.638;2023-07-16T03:44:09;15.75;;;6.85;;
51566;SDS011;37657;53.182;5.638;2023-07-16T03:46:35;11.02;;;7.38;;
51566;SDS011;37657;53.182;5.638;2023-07-16T03:49:01;14.43;;;7.90;;
51566;SDS011;37657;53.182;5.638;2023-07-16T03:51:27;12.57;;;8.50;;
51566;SDS011;37657;53.182;5.638;2023-07-16T03:53:52;13.40;;;7.63;;
51566;SDS011;37657;53.182;5.638;2023-07-16T03:56:18;9.20;;;7.03;;
51566;SDS011;37657;53.182;5.638;2023-07-16T03:58:43;13.95;;;6.72;;
51566;SDS011;37657;53.182;5.638;2023-07-16T04:01:09;16.30;;;7.40;;
51566;SDS011;37657;53.182;5.638;2023-07-16T04:03:35;20.10;;;8.63;;
51566;SDS011;37657;53.182;5.638;2023-07-16T04:06:04;11.48;;;7.32;;
51566;SDS011;37657;53.182;5.638;2023-07-16T04:08:30;15.77;;;7.28;;
51566;SDS011;37657;53.182;5.638;2023-07-16T04:10:55;11.40;;;6.35;;
51566;SDS011;37657;53.182;5.638;2023-07-16T04:13:21;13.23;;;7.80;;
51566;SDS011;37657;53.182;5.638;2023-07-16T04:15:47;18.83;;;8.30;;
51566;SDS011;37657;53.182;5.638;2023-07-16T04:18:12;21.67;;;8.93;;
51566;SDS011;37657;53.182;5.638;2023-07-16T04:20:38;14.32;;;7.03;;
51566;SDS011;37657;53.182;5.638;2023-07-16T04:23:03;11.07;;;5.93;;
51566;SDS011;37657;53.182;5.638;2023-07-16T04:25:29;15.07;;;7.75;;
51566;SDS011;37657;53.182;5.638;2023-07-16T04:27:55;11.77;;;7.13;;
51566;SDS011;37657;53.182;5.638;2023-07-16T04:30:21;12.95;;;6.20;;
51566;SDS011;37657;53.182;5.638;2023-07-16T04:32:47;11.02;;;7.88;;
51566;SDS011;37657;53.182;5.638;2023-07-16T04:35:12;10.52;;;6.53;;
51566;SDS011;37657;53.182;5.638;2023-07-16T04:37:38;11.32;;;8.15;;
51566;SDS011;37657;53.182;5.638;2023-07-16T04:40:04;17.00;;;7.13;;
51566;SDS011;37657;53.182;5.638;2023-07-16T04:42:30;16.05;;;7.80;;
51566;SDS011;37657;53.182;5.638;2023-07-16T04:44:55;11.45;;;6.90;;
51566;SDS011;37657;53.182;5.638;2023-07-16T04:47:21;13.52;;;7.85;;
51566;SDS011;37657;53.182;5.638;2023-07-16T04:49:46;11.00;;;6.55;;
51566;SDS011;37657;53.182;5.638;2023-07-16T04:52:12;15.23;;;7.05;;
51566;SDS011;37657;53.182;5.638;2023-07-16T04:54:38;13.38;;;6.40;;
51566;SDS011;37657;53.182;5.638;2023-07-16T04:57:05;10.65;;;5.93;;
51566;SDS011;37657;53.182;5.638;2023-07-16T04:59:31;23.95;;;6.97;;
51566;SDS011;37657;53.182;5.638;2023-07-16T05:01:57;11.38;;;5.47;;
51566;SDS011;37657;53.182;5.638;2023-07-16T05:04:23;14.20;;;6.82;;
51566;SDS011;37657;53.182;5.638;2023-07-16T05:06:48;18.38;;;6.45;;
51566;SDS011;37657;53.182;5.638;2023-07-16T05:09:14;12.15;;;6.35;;
51566;SDS011;37657;53.182;5.638;2023-07-16T05:11:39;18.30;;;7.20;;
51566;SDS011;37657;53.182;5.638;2023-07-16T05:14:05;15.55;;;7.20;;
51566;SDS011;37657;53.182;5.638;2023-07-16T05:16:31;12.55;;;6.57;;
51566;SDS011;37657;53.182;5.638;2023-07-16T05:18:56;17.40;;;7.68;;
51566;SDS011;37657;53.182;5.638;2023-07-16T05:21:22;19.13;;;7.47;;
51566;SDS011;37657;53.182;5.638;2023-07-16T05:23:47;11.85;;;7.43;;
51566;SDS011;37657;53.182;5.638;2023-07-16T05:26:13;15.73;;;8.23;;
51566;SDS011;37657;53.182;5.638;2023-07-16T05:28:38;11.25;;;6.63;;
51566;SDS011;37657;53.182;5.638;2023-07-16T05:31:04;11.52;;;6.78;;
51566;SDS011;37657;53.182;5.638;2023-07-16T05:33:29;16.63;;;7.82;;
51566;SDS011;37657;53.182;5.638;2023-07-16T05:35:55;11.77;;;5.95;;
51566;SDS011;37657;53.182;5.638;2023-07-16T05:38:21;14.73;;;6.80;;
51566;SDS011;37657;53.182;5.638;2023-07-16T05:40:47;12.32;;;6.53;;
51566;SDS011;37657;53.182;5.638;2023-07-16T05:43:12;9.95;;;6.07;;
51566;SDS011;37657;53.182;5.638;2023-07-16T05:45:39;8.73;;;6.05;;
51566;SDS011;37657;53.182;5.638;2023-07-16T05:48:05;9.70;;;6.18;;
51566;SDS011;37657;53.182;5.638;2023-07-16T05:50:31;17.00;;;6.25;;
51566;SDS011;37657;53.182;5.638;2023-07-16T05:52:56;9.77;;;7.18;;
51566;SDS011;37657;53.182;5.638;2023-07-16T05:55:22;11.93;;;5.72;;
51566;SDS011;37657;53.182;5.638;2023-07-16T05:57:47;11.02;;;6.72;;
51566;SDS011;37657;53.182;5.638;2023-07-16T06:00:13;8.02;;;5.82;;
51566;SDS011;37657;53.182;5.638;2023-07-16T06:02:39;11.75;;;6.80;;
51566;SDS011;37657;53.182;5.638;2023-07-16T06:05:05;8.32;;;6.25;;
51566;SDS011;37657;53.182;5.638;2023-07-16T06:07:31;13.02;;;8.90;;
51566;SDS011;37657;53.182;5.638;2023-07-16T06:09:57;15.68;;;7.00;;
51566;SDS011;37657;53.182;5.638;2023-07-16T06:12:23;11.52;;;6.68;;
51566;SDS011;37657;53.182;5.638;2023-07-16T06:14:49;15.75;;;6.45;;
51566;SDS011;37657;53.182;5.638;2023-07-16T06:17:14;9.63;;;6.30;;
51566;SDS011;37657;53.182;5.638;2023-07-16T06:19:40;17.23;;;7.88;;
51566;SDS011;37657;53.182;5.638;2023-07-16T06:22:05;10.07;;;5.78;;
51566;SDS011;37657;53.182;5.638;2023-07-16T06:24:32;11.13;;;5.50;;
51566;SDS011;37657;53.182;5.638;2023-07-16T06:26:57;9.93;;;7.05;;
51566;SDS011;37657;53.182;5.638;2023-07-16T06:29:23;14.95;;;7.35;;
51566;SDS011;37657;53.182;5.638;2023-07-16T06:31:56;10.88;;;6.90;;
51566;SDS011;37657;53.182;5.638;2023-07-16T06:34:22;11.82;;;8.48;;
51566;SDS011;37657;53.182;5.638;2023-07-16T06:36:48;13.73;;;7.53;;
51566;SDS011;37657;53.182;5.638;2023-07-16T06:39:14;14.07;;;7.28;;
51566;SDS011;37657;53.182;5.638;2023-07-16T06:41:40;10.25;;;7.07;;
51566;SDS011;37657;53.182;5.638;2023-07-16T06:44:05;13.27;;;6.47;;
51566;SDS011;37657;53.182;5.638;2023-07-16T06:46:31;10.75;;;6.78;;
51566;SDS011;37657;53.182;5.638;2023-07-16T06:48:56;13.82;;;6.95;;
51566;SDS011;37657;53.182;5.638;2023-07-16T06:51:22;10.80;;;6.63;;
51566;SDS011;37657;53.182;5.638;2023-07-16T06:53:48;14.68;;;6.78;;
51566;SDS011;37657;53.182;5.638;2023-07-16T06:56:13;15.02;;;7.05;;
51566;SDS011;37657;53.182;5.638;2023-07-16T06:58:39;15.52;;;7.47;;
51566;SDS011;37657;53.182;5.638;2023-07-16T07:01:05;11.82;;;6.63;;
51566;SDS011;37657;53.182;5.638;2023-07-16T07:03:30;12.80;;;6.38;;
51566;SDS011;37657;53.182;5.638;2023-07-16T07:05:58;9.77;;;5.65;;
51566;SDS011;37657;53.182;5.638;2023-07-16T07:08:26;12.10;;;5.43;;
51566;SDS011;37657;53.182;5.638;2023-07-16T07:10:52;13.80;;;6.85;;
51566;SDS011;37657;53.182;5.638;2023-07-16T07:13:17;9.90;;;5.68;;
51566;SDS011;37657;53.182;5.638;2023-07-16T07:15:43;18.48;;;7.50;;
51566;SDS011;37657;53.182;5.638;2023-07-16T07:18:09;15.02;;;6.20;;
51566;SDS011;37657;53.182;5.638;2023-07-16T07:20:34;14.10;;;6.85;;
51566;SDS011;37657;53.182;5.638;2023-07-16T07:23:00;15.68;;;6.75;;
51566;SDS011;37657;53.182;5.638;2023-07-16T07:25:28;12.23;;;6.00;;
51566;SDS011;37657;53.182;5.638;2023-07-16T07:27:55;29.67;;;7.18;;
51566;SDS011;37657;53.182;5.638;2023-07-16T07:30:20;8.02;;;5.00;;
51566;SDS011;37657;53.182;5.638;2023-07-16T07:32:46;13.73;;;4.93;;
51566;SDS011;37657;53.182;5.638;2023-07-16T07:35:11;18.35;;;6.25;;
51566;SDS011;37657;53.182;5.638;2023-07-16T07:37:37;11.88;;;6.55;;
51566;SDS011;37657;53.182;5.638;2023-07-16T07:40:02;7.55;;;6.20;;
51566;SDS011;37657;53.182;5.638;2023-07-16T07:42:29;12.98;;;6.63;;
51566;SDS011;37657;53.182;5.638;2023-07-16T07:44:54;11.65;;;5.80;;
51566;SDS011;37657;53.182;5.638;2023-07-16T07:47:20;10.00;;;6.57;;
51566;SDS011;37657;53.182;5.638;2023-07-16T07:49:46;10.70;;;6.65;;
51566;SDS011;37657;53.182;5.638;2023-07-16T07:52:12;10.30;;;6.78;;
51566;SDS011;37657;53.182;5.638;2023-07-16T07:54:37;16.65;;;6.82;;
51566;SDS011;37657;53.182;5.638;2023-07-16T07:57:03;14.40;;;6.93;;
51566;SDS011;37657;53.182;5.638;2023-07-16T07:59:30;10.27;;;5.60;;
51566;SDS011;37657;53.182;5.638;2023-07-16T08:01:56;9.13;;;6.60;;
51566;SDS011;37657;53.182;5.638;2023-07-16T08:04:23;11.48;;;5.78;;
51566;SDS011;37657;53.182;5.638;2023-07-16T08:06:49;14.82;;;6.47;;
51566;SDS011;37657;53.182;5.638;2023-07-16T08:09:15;13.95;;;6.00;;
51566;SDS011;37657;53.182;5.638;2023-07-16T08:11:41;9.57;;;6.20;;
51566;SDS011;37657;53.182;5.638;2023-07-16T08:14:06;15.80;;;7.18;;
51566;SDS011;37657;53.182;5.638;2023-07-16T08:16:32;11.10;;;7.43;;
51566;SDS011;37657;53.182;5.638;2023-07-16T08:18:58;14.88;;;7.10;;
51566;SDS011;37657;53.182;5.638;2023-07-16T08:21:23;10.43;;;6.05;;
51566;SDS011;37657;53.182;5.638;2023-07-16T08:23:49;9.70;;;6.03;;
51566;SDS011;37657;53.182;5.638;2023-07-16T08:26:14;16.25;;;7.72;;
51566;SDS011;37657;53.182;5.638;2023-07-16T08:28:41;10.55;;;6.22;;
51566;SDS011;37657;53.182;5.638;2023-07-16T08:31:07;10.60;;;6.72;;
51566;SDS011;37657;53.182;5.638;2023-07-16T08:33:32;14.65;;;6.22;;
51566;SDS011;37657;53.182;5.638;2023-07-16T08:35:58;10.75;;;5.50;;
51566;SDS011;37657;53.182;5.638;2023-07-16T08:38:24;11.77;;;6.25;;
51566;SDS011;37657;53.182;5.638;2023-07-16T08:40:49;14.70;;;6.82;;
51566;SDS011;37657;53.182;5.638;2023-07-16T08:43:15;14.52;;;6.70;;
51566;SDS011;37657;53.182;5.638;2023-07-16T08:45:41;14.98;;;6.03;;
51566;SDS011;37657;53.182;5.638;2023-07-16T08:48:11;13.02;;;5.53;;
51566;SDS011;37657;53.182;5.638;2023-07-16T08:50:37;9.77;;;5.13;;
51566;SDS011;37657;53.182;5.638;2023-07-16T08:53:04;10.85;;;4.45;;
51566;SDS011;37657;53.182;5.638;2023-07-16T08:55:30;11.23;;;4.95;;
51566;SDS011;37657;53.182;5.638;2023-07-16T08:57:56;20.13;;;5.22;;
51566;SDS011;37657;53.182;5.638;2023-07-16T09:00:23;12.52;;;4.97;;
51566;SDS011;37657;53.182;5.638;2023-07-16T09:02:51;10.13;;;4.95;;
51566;SDS011;37657;53.182;5.638;2023-07-16T09:05:21;7.65;;;4.85;;
51566;SDS011;37657;53.182;5.638;2023-07-16T09:07:47;9.43;;;6.15;;
51566;SDS011;37657;53.182;5.638;2023-07-16T09:10:13;14.50;;;5.82;;
51566;SDS011;37657;53.182;5.638;2023-07-16T09:12:45;14.82;;;6.07;;
51566;SDS011;37657;53.182;5.638;2023-07-16T09:15:11;17.38;;;6.85;;
51566;SDS011;37657;53.182;5.638;2023-07-16T09:17:41;17.45;;;6.72;;
51566;SDS011;37657;53.182;5.638;2023-07-16T09:20:07;10.70;;;5.55;;
51566;SDS011;37657;53.182;5.638;2023-07-16T09:22:33;12.32;;;5.95;;
51566;SDS011;37657;53.182;5.638;2023-07-16T09:25:02;17.02;;;8.20;;
51566;SDS011;37657;53.182;5.638;2023-07-16T09:27:28;13.68;;;7.75;;
51566;SDS011;37657;53.182;5.638;2023-07-16T09:29:55;15.95;;;7.47;;
51566;SDS011;37657;53.182;5.638;2023-07-16T09:32:21;13.07;;;6.47;;
51566;SDS011;37657;53.182;5.638;2023-07-16T09:34:49;9.55;;;6.63;;
51566;SDS011;37657;53.182;5.638;2023-07-16T09:37:15;11.48;;;5.97;;
51566;SDS011;37657;53.182;5.638;2023-07-16T09:39:43;16.27;;;6.78;;
51566;SDS011;37657;53.182;5.638;2023-07-16T09:42:11;8.57;;;5.18;;
51566;SDS011;37657;53.182;5.638;2023-07-16T09:44:37;11.40;;;6.60;;
51566;SDS011;37657;53.182;5.638;2023-07-16T09:47:03;13.98;;;5.97;;
51566;SDS011;37657;53.182;5.638;2023-07-16T09:49:29;9.60;;;6.38;;
51566;SDS011;37657;53.182;5.638;2023-07-16T09:51:58;13.38;;;6.70;;
51566;SDS011;37657;53.182;5.638;2023-07-16T09:54:27;12.20;;;6.20;;
51566;SDS011;37657;53.182;5.638;2023-07-16T09:56:57;8.88;;;5.80;;
51566;SDS011;37657;53.182;5.638;2023-07-16T09:59:24;13.25;;;5.90;;
51566;SDS011;37657;53.182;5.638;2023-07-16T10:01:54;11.65;;;5.97;;
51566;SDS011;37657;53.182;5.638;2023-07-16T10:04:21;10.60;;;4.72;;
51566;SDS011;37657;53.182;5.638;2023-07-16T10:06:50;15.20;;;5.68;;
51566;SDS011;37657;53.182;5.638;2023-07-16T10:09:33;17.83;;;6.47;;
51566;SDS011;37657;53.182;5.638;2023-07-16T10:12:11;13.40;;;6.00;;
51566;SDS011;37657;53.182;5.638;2023-07-16T10:14:47;12.73;;;5.13;;
51566;SDS011;37657;53.182;5.638;2023-07-16T10:17:21;15.30;;;6.13;;
51566;SDS011;37657;53.182;5.638;2023-07-16T10:20:01;8.73;;;5.05;;
51566;SDS011;37657;53.182;5.638;2023-07-16T10:22:31;13.18;;;5.93;;
51566;SDS011;37657;53.182;5.638;2023-07-16T10:25:01;10.82;;;6.22;;
51566;SDS011;37657;53.182;5.638;2023-07-16T10:27:31;13.05;;;6.03;;
51566;SDS011;37657;53.182;5.638;2023-07-16T10:29:58;9.50;;;4.72;;
51566;SDS011;37657;53.182;5.638;2023-07-16T10:32:26;9.93;;;4.50;;
51566;SDS011;37657;53.182;5.638;2023-07-16T10:34:55;12.00;;;5.00;;
51566;SDS011;37657;53.182;5.638;2023-07-16T10:37:21;8.85;;;4.68;;
51566;SDS011;37657;53.182;5.638;2023-07-16T10:39:48;10.32;;;6.55;;
51566;SDS011;37657;53.182;5.638;2023-07-16T10:42:15;13.38;;;5.45;;
51566;SDS011;37657;53.182;5.638;2023-07-16T10:44:42;9.45;;;5.28;;
51566;SDS011;37657;53.182;5.638;2023-07-16T10:47:08;9.90;;;5.53;;
51566;SDS011;37657;53.182;5.638;2023-07-16T10:49:43;9.82;;;5.95;;
51566;SDS011;37657;53.182;5.638;2023-07-16T10:52:09;10.88;;;5.15;;
51566;SDS011;37657;53.182;5.638;2023-07-16T10:54:35;9.75;;;4.47;;
51566;SDS011;37657;53.182;5.638;2023-07-16T10:57:00;18.20;;;5.40;;
51566;SDS011;37657;53.182;5.638;2023-07-16T10:59:26;12.25;;;5.55;;
51566;SDS011;37657;53.182;5.638;2023-07-16T11:01:53;6.53;;;4.53;;
51566;SDS011;37657;53.182;5.638;2023-07-16T11:04:18;11.82;;;5.20;;
51566;SDS011;37657;53.182;5.638;2023-07-16T11:06:44;20.92;;;5.15;;
51566;SDS011;37657;53.182;5.638;2023-07-16T11:09:09;9.80;;;3.92;;
51566;SDS011;37657;53.182;5.638;2023-07-16T11:11:36;10.88;;;3.80;;
51566;SDS011;37657;53.182;5.638;2023-07-16T11:14:05;8.73;;;4.07;;
51566;SDS011;37657;53.182;5.638;2023-07-16T11:16:35;14.77;;;6.10;;
51566;SDS011;37657;53.182;5.638;2023-07-16T11:19:03;9.05;;;3.58;;
51566;SDS011;37657;53.182;5.638;2023-07-16T11:21:30;10.63;;;4.72;;
51566;SDS011;37657;53.182;5.638;2023-07-16T11:24:06;9.48;;;4.07;;
51566;SDS011;37657;53.182;5.638;2023-07-16T11:26:37;16.55;;;4.38;;
51566;SDS011;37657;53.182;5.638;2023-07-16T11:29:12;21.95;;;4.50;;
51566;SDS011;37657;53.182;5.638;2023-07-16T11:31:38;16.13;;;4.63;;
51566;SDS011;37657;53.182;5.638;2023-07-16T11:34:06;6.05;;;2.90;;
51566;SDS011;37657;53.182;5.638;2023-07-16T11:36:32;7.03;;;3.53;;
51566;SDS011;37657;53.182;5.638;2023-07-16T11:38:58;8.25;;;3.47;;
51566;SDS011;37657;53.182;5.638;2023-07-16T11:41:24;12.60;;;4.57;;
51566;SDS011;37657;53.182;5.638;2023-07-16T11:43:50;11.65;;;4.32;;
51566;SDS011;37657;53.182;5.638;2023-07-16T11:46:16;11.57;;;3.95;;
51566;SDS011;37657;53.182;5.638;2023-07-16T11:48:42;20.35;;;4.72;;
51566;SDS011;37657;53.182;5.638;2023-07-16T11:51:08;8.02;;;3.97;;
51566;SDS011;37657;53.182;5.638;2023-07-16T11:53:34;12.45;;;4.20;;
51566;SDS011;37657;53.182;5.638;2023-07-16T11:55:59;6.57;;;4.32;;
51566;SDS011;37657;53.182;5.638;2023-07-16T11:58:25;11.55;;;4.35;;
51566;SDS011;37657;53.182;5.638;2023-07-16T12:00:50;12.25;;;3.92;;
51566;SDS011;37657;53.182;5.638;2023-07-16T12:03:16;14.68;;;4.75;;
51566;SDS011;37657;53.182;5.638;2023-07-16T12:05:42;13.93;;;4.47;;
51566;SDS011;37657;53.182;5.638;2023-07-16T12:08:08;8.13;;;3.80;;
51566;SDS011;37657;53.182;5.638;2023-07-16T12:10:39;13.50;;;5.93;;
51566;SDS011;37657;53.182;5.638;2023-07-16T12:13:05;9.52;;;3.88;;
51566;SDS011;37657;53.182;5.638;2023-07-16T12:15:31;8.65;;;3.53;;
51566;SDS011;37657;53.182;5.638;2023-07-16T12:17:57;39.03;;;5.85;;
51566;SDS011;37657;53.182;5.638;2023-07-16T12:20:22;23.75;;;4.50;;
51566;SDS011;37657;53.182;5.638;2023-07-16T12:22:48;16.85;;;6.00;;
51566;SDS011;37657;53.182;5.638;2023-07-16T12:25:15;9.57;;;5.35;;
51566;SDS011;37657;53.182;5.638;2023-07-16T12:27:43;10.25;;;4.85;;
51566;SDS011;37657;53.182;5.638;2023-07-16T12:30:09;13.25;;;5.28;;
51566;SDS011;37657;53.182;5.638;2023-07-16T12:32:35;12.05;;;5.68;;
51566;SDS011;37657;53.182;5.638;2023-07-16T12:35:01;13.77;;;6.45;;
51566;SDS011;37657;53.182;5.638;2023-07-16T12:37:28;12.93;;;4.68;;
51566;SDS011;37657;53.182;5.638;2023-07-16T12:39:54;11.48;;;5.20;;
51566;SDS011;37657;53.182;5.638;2023-07-16T12:42:19;13.00;;;4.95;;
51566;SDS011;37657;53.182;5.638;2023-07-16T12:44:45;11.38;;;5.18;;
51566;SDS011;37657;53.182;5.638;2023-07-16T12:47:11;10.25;;;5.07;;
51566;SDS011;37657;53.182;5.638;2023-07-16T12:49:36;11.05;;;4.55;;
51566;SDS011;37657;53.182;5.638;2023-07-16T12:52:02;14.70;;;4.88;;
51566;SDS011;37657;53.182;5.638;2023-07-16T12:54:31;10.25;;;4.22;;
51566;SDS011;37657;53.182;5.638;2023-07-16T12:56:57;10.07;;;4.47;;
51566;SDS011;37657;53.182;5.638;2023-07-16T12:59:23;12.02;;;4.60;;
51566;SDS011;37657;53.182;5.638;2023-07-16T13:01:49;15.27;;;5.53;;
51566;SDS011;37657;53.182;5.638;2023-07-16T13:04:16;15.00;;;5.13;;
51566;SDS011;37657;53.182;5.638;2023-07-16T13:06:41;9.15;;;4.25;;
51566;SDS011;37657;53.182;5.638;2023-07-16T13:09:07;6.43;;;3.38;;
51566;SDS011;37657;53.182;5.638;2023-07-16T13:11:33;11.40;;;4.07;;
51566;SDS011;37657;53.182;5.638;2023-07-16T13:13:58;6.60;;;3.67;;
51566;SDS011;37657;53.182;5.638;2023-07-16T13:16:24;11.57;;;3.20;;
51566;SDS011;37657;53.182;5.638;2023-07-16T13:18:50;6.63;;;2.92;;
51566;SDS011;37657;53.182;5.638;2023-07-16T13:21:15;9.20;;;3.53;;
51566;SDS011;37657;53.182;5.638;2023-07-16T13:23:41;8.45;;;3.42;;
51566;SDS011;37657;53.182;5.638;2023-07-16T13:26:06;12.88;;;4.32;;
51566;SDS011;37657;53.182;5.638;2023-07-16T13:28:32;10.52;;;4.13;;
51566;SDS011;37657;53.182;5.638;2023-07-16T13:30:57;20.77;;;5.47;;
51566;SDS011;37657;53.182;5.638;2023-07-16T13:33:23;9.93;;;4.00;;
51566;SDS011;37657;53.182;5.638;2023-07-16T13:35:49;17.15;;;5.65;;
51566;SDS011;37657;53.182;5.638;2023-07-16T13:38:14;10.48;;;4.30;;
51566;SDS011;37657;53.182;5.638;2023-07-16T13:40:40;11.50;;;5.35;;
51566;SDS011;37657;53.182;5.638;2023-07-16T13:43:05;23.73;;;5.60;;
51566;SDS011;37657;53.182;5.638;2023-07-16T13:45:31;13.13;;;3.92;;
51566;SDS011;37657;53.182;5.638;2023-07-16T13:47:58;9.85;;;4.50;;
51566;SDS011;37657;53.182;5.638;2023-07-16T13:50:24;10.00;;;4.90;;
51566;SDS011;37657;53.182;5.638;2023-07-16T13:52:49;8.13;;;3.90;;
51566;SDS011;37657;53.182;5.638;2023-07-16T13:55:15;13.40;;;4.10;;
51566;SDS011;37657;53.182;5.638;2023-07-16T13:57:40;8.15;;;3.22;;
51566;SDS011;37657;53.182;5.638;2023-07-16T14:00:07;10.65;;;4.28;;
51566;SDS011;37657;53.182;5.638;2023-07-16T14:02:35;10.15;;;3.67;;
51566;SDS011;37657;53.182;5.638;2023-07-16T14:05:01;8.77;;;3.67;;
51566;SDS011;37657;53.182;5.638;2023-07-16T14:07:27;6.68;;;3.00;;
51566;SDS011;37657;53.182;5.638;2023-07-16T14:09:53;8.20;;;3.92;;
51566;SDS011;37657;53.182;5.638;2023-07-16T14:12:19;8.88;;;3.58;;
51566;SDS011;37657;53.182;5.638;2023-07-16T14:14:45;9.02;;;3.90;;
51566;SDS011;37657;53.182;5.638;2023-07-16T14:17:10;10.35;;;3.75;;
51566;SDS011;37657;53.182;5.638;2023-07-16T14:19:36;6.85;;;3.50;;
51566;SDS011;37657;53.182;5.638;2023-07-16T14:22:01;10.20;;;3.42;;
51566;SDS011;37657;53.182;5.638;2023-07-16T14:24:27;8.65;;;3.33;;
51566;SDS011;37657;53.182;5.638;2023-07-16T14:26:52;6.75;;;2.83;;
51566;SDS011;37657;53.182;5.638;2023-07-16T14:29:18;14.50;;;4.25;;
51566;SDS011;37657;53.182;5.638;2023-07-16T14:31:43;7.15;;;3.30;;
51566;SDS011;37657;53.182;5.638;2023-07-16T14:34:09;11.02;;;3.58;;
51566;SDS011;37657;53.182;5.638;2023-07-16T14:36:35;7.30;;;3.22;;